Time;durP1;ratioP1;P1;durP2;ratioP2;P2;SDS_P1;SDS_P2;PMS_P1;PMS_P2;Temp;Humidity;BMP_temperature;BMP_pressure;BME280_temperature;BME280_humidity;BME280_pressure;Samples;Min_cycle;Max_cycle;Signal;HPM_P1;HPM_P2
2022/11/24 00:03:37;;;;;;;71.45;56.45;;;20.80;50.80;;;;;;4694683;59;21055;-40
2022/11/24 00:08:39;;;;;;;68.40;54.95;;;20.80;50.90;;;;;;4813132;55;21453;-37
2022/11/24 00:13:41;;;;;;;69.43;55.75;;;20.80;50.80;;;;;;4851443;55;21019;-42
2022/11/24 00:18:44;;;;;;;72.72;56.63;;;20.80;50.80;;;;;;5040549;55;21482;-44
2022/11/24 00:23:45;;;;;;;66.80;55.67;;;20.80;50.80;;;;;;4717306;55;20999;-45
2022/11/24 00:28:48;;;;;;;64.75;54.28;;;20.80;51.40;;;;;;4729166;55;21008;-42
2022/11/24 00:33:51;;;;;;;65.28;54.22;;;20.80;50.80;;;;;;4708530;55;21004;-45
2022/11/24 00:38:54;;;;;;;64.15;53.47;;;20.80;50.80;;;;;;4865186;55;21012;-34
2022/11/24 00:43:56;;;;;;;62.88;51.37;;;20.80;50.80;;;;;;4710980;55;21506;-43
2022/11/24 00:48:56;;;;;;;63.63;52.40;;;20.80;50.70;;;;;;5110719;55;20992;-33
2022/11/24 00:53:58;;;;;;;59.38;48.53;;;20.80;50.70;;;;;;5047325;55;21096;-42
2022/11/24 00:58:59;;;;;;;63.58;50.75;;;20.80;50.70;;;;;;4773353;55;21016;-40
2022/11/24 01:04:00;;;;;;;63.22;51.47;;;20.80;50.70;;;;;;4819401;55;21087;-44
2022/11/24 01:09:02;;;;;;;61.65;49.78;;;20.80;50.70;;;;;;5021599;55;21489;-41
2022/11/24 01:14:03;;;;;;;59.25;49.47;;;20.70;50.70;;;;;;4739314;55;21063;-30
2022/11/24 01:19:03;;;;;;;60.92;48.75;;;20.70;50.70;;;;;;4695029;59;21016;-41
2022/11/24 01:24:05;;;;;;;55.10;46.83;;;20.80;50.80;;;;;;4695216;59;21514;-35
2022/11/24 01:29:06;;;;;;;56.67;47.38;;;20.80;50.70;;;;;;4755195;55;20988;-45
2022/11/24 01:34:07;;;;;;;57.40;47.15;;;20.70;50.60;;;;;;4695199;59;21083;-43
2022/11/24 01:39:08;;;;;;;57.97;47.50;;;20.70;50.70;;;;;;5017027;55;21079;-45
2022/11/24 01:44:27;;;;;;;58.08;46.05;;;20.70;50.60;;;;;;5000000;55;21043;-41
2022/11/24 01:49:40;;;;;;;56.03;46.30;;;20.70;50.60;;;;;;4790819;55;21052;-47
2022/11/24 01:54:48;;;;;;;54.15;45.28;;;20.70;50.60;;;;;;4771169;55;21100;-48
2022/11/24 01:59:52;;;;;;;52.75;44.20;;;20.70;50.60;;;;;;4860672;55;21118;-36
2022/11/24 02:04:54;;;;;;;54.40;44.45;;;20.70;50.60;;;;;;4831284;55;21012;-38
2022/11/24 02:09:59;;;;;;;53.17;42.97;;;20.70;50.60;;;;;;5169689;55;21016;-41
2022/11/24 02:15:00;;;;;;;52.30;43.25;;;20.70;50.50;;;;;;4778864;55;21064;-38
2022/11/24 02:20:04;;;;;;;50.75;42.03;;;20.70;50.50;;;;;;4694993;59;21024;-41
2022/11/24 02:27:14;;;;;;;49.20;42.75;;;20.70;50.50;;;;;;4985794;55;21056;-33
2022/11/24 02:32:15;;;;;;;51.13;42.53;;;20.70;50.50;;;;;;4812030;55;21702;-41
2022/11/24 02:37:16;;;;;;;50.97;41.88;;;20.70;50.40;;;;;;4778498;55;21061;-34
2022/11/24 02:42:17;;;;;;;51.35;42.13;;;20.70;50.40;;;;;;4855681;55;21116;-29
2022/11/24 02:47:18;;;;;;;48.35;40.65;;;20.70;50.50;;;;;;4741106;55;21447;-40
2022/11/24 02:52:18;;;;;;;51.67;40.90;;;20.70;50.50;;;;;;4695008;59;21518;-36
2022/11/24 02:57:22;;;;;;;44.85;37.35;;;20.70;50.40;;;;;;4819640;55;21039;-42
2022/11/24 03:02:23;;;;;;;45.20;38.72;;;20.70;50.40;;;;;;4899670;55;21542;-45
2022/11/24 03:07:23;;;;;;;46.00;37.88;;;20.70;50.50;;;;;;4979886;55;21048;-41
2022/11/24 03:12:24;;;;;;;46.35;38.95;;;20.70;50.40;;;;;;4765922;55;21064;-43
2022/11/24 03:17:25;;;;;;;46.97;38.38;;;20.70;50.40;;;;;;4827120;55;21534;-44
2022/11/24 03:22:26;;;;;;;44.40;37.13;;;20.70;50.30;;;;;;4716250;55;21482;-38
2022/11/24 03:27:28;;;;;;;45.55;38.35;;;20.70;50.40;;;;;;4887803;55;21056;-37
2022/11/24 03:32:29;;;;;;;43.20;36.35;;;20.70;50.40;;;;;;4868425;55;21015;-42
2022/11/24 03:37:30;;;;;;;41.92;35.05;;;20.70;50.30;;;;;;4694887;59;21044;-42
2022/11/24 03:42:31;;;;;;;45.63;36.05;;;20.70;50.30;;;;;;4789008;55;21024;-42
2022/11/24 03:47:32;;;;;;;43.38;35.92;;;20.70;50.30;;;;;;5002845;55;21015;-37
2022/11/24 03:52:33;;;;;;;44.30;36.33;;;20.70;50.30;;;;;;4767652;55;20996;-43
2022/11/24 03:57:33;;;;;;;42.00;34.78;;;20.70;50.30;;;;;;4694787;59;21040;-40
2022/11/24 04:02:34;;;;;;;40.83;33.72;;;20.70;51.00;;;;;;4736275;55;21012;-35
2022/11/24 04:07:35;;;;;;;41.35;34.03;;;20.70;50.40;;;;;;4906398;55;20985;-37
2022/11/24 04:12:45;;;;;;;41.40;34.28;;;20.70;50.30;;;;;;4817555;55;21004;-38
2022/11/24 04:17:48;;;;;;;41.20;32.53;;;20.70;50.30;;;;;;4842895;55;21040;-45
2022/11/24 04:22:50;;;;;;;41.40;34.03;;;20.70;50.30;;;;;;5170105;55;21067;-42
2022/11/24 04:27:53;;;;;;;38.13;31.48;;;20.70;50.30;;;;;;4695297;59;21614;-41
2022/11/24 04:32:54;;;;;;;39.97;33.53;;;20.70;50.30;;;;;;4695268;59;21080;-31
2022/11/24 04:37:55;;;;;;;39.25;32.13;;;20.70;50.40;;;;;;4772549;55;21064;-46
2022/11/24 04:42:56;;;;;;;37.83;31.37;;;20.70;50.30;;;;;;4693945;59;21087;-38
2022/11/24 04:47:57;;;;;;;38.45;31.45;;;20.70;50.40;;;;;;4902113;55;21004;-41
2022/11/24 04:52:58;;;;;;;36.47;31.60;;;20.70;50.30;;;;;;4694842;59;21076;-46
2022/11/24 04:57:58;;;;;;;36.15;30.60;;;20.70;50.40;;;;;;4767493;55;21116;-40
2022/11/24 05:02:59;;;;;;;36.97;30.88;;;20.70;50.30;;;;;;4694191;59;21039;-44
2022/11/24 05:08:00;;;;;;;37.17;30.50;;;20.70;50.40;;;;;;4694855;59;21000;-43
2022/11/24 05:13:10;;;;;;;34.83;29.48;;;20.70;50.50;;;;;;4759762;55;21514;-37
2022/11/24 05:18:14;;;;;;;36.95;31.10;;;20.70;50.50;;;;;;4722515;55;21589;-46
2022/11/24 05:23:15;;;;;;;33.55;28.95;;;20.70;50.60;;;;;;5035700;55;21475;-36
2022/11/24 05:28:17;;;;;;;35.72;29.17;;;20.70;50.60;;;;;;4733202;55;21572;-44
2022/11/24 05:33:19;;;;;;;33.75;29.10;;;20.70;50.70;;;;;;5140120;55;21000;-44
2022/11/24 05:38:21;;;;;;;36.17;29.30;;;20.60;50.60;;;;;;4810250;55;21463;-42
2022/11/24 05:43:22;;;;;;;34.97;28.58;;;20.70;50.70;;;;;;4694131;59;21510;-40
2022/11/24 05:48:23;;;;;;;33.67;28.98;;;20.70;50.80;;;;;;4695443;55;20997;-40
2022/11/24 05:53:25;;;;;;;34.83;28.35;;;20.70;50.80;;;;;;4695011;59;21084;-36
2022/11/24 05:58:26;;;;;;;33.83;28.08;;;20.70;50.70;;;;;;4778756;55;21576;-41
2022/11/24 06:03:27;;;;;;;34.80;28.35;;;20.70;50.70;;;;;;4693774;59;21565;-42
2022/11/24 06:08:28;;;;;;;35.90;28.55;;;20.70;50.70;;;;;;4727981;55;21012;-34
2022/11/24 06:13:29;;;;;;;34.67;28.55;;;20.60;50.60;;;;;;4695087;59;20992;-30
2022/11/24 06:18:29;;;;;;;36.83;29.73;;;20.60;50.60;;;;;;4696238;55;21008;-43
2022/11/24 06:23:31;;;;;;;32.65;27.80;;;20.70;50.70;;;;;;4693842;59;21020;-34
2022/11/24 06:28:32;;;;;;;34.85;28.48;;;20.70;50.60;;;;;;4695190;59;21080;-31
2022/11/24 06:33:34;;;;;;;33.65;27.98;;;20.70;50.60;;;;;;4803817;55;21008;-47
2022/11/24 06:38:35;;;;;;;36.40;28.85;;;20.60;50.60;;;;;;4694397;59;21052;-46
2022/11/24 06:43:36;;;;;;;37.00;29.85;;;20.60;50.60;;;;;;4849724;55;21017;-29
2022/11/24 06:48:37;;;;;;;34.90;28.75;;;20.70;50.60;;;;;;4890553;55;21455;-36
2022/11/24 06:53:39;;;;;;;36.35;28.85;;;20.60;50.50;;;;;;4742548;55;21056;-39
2022/11/24 06:58:46;;;;;;;36.78;29.42;;;20.60;50.60;;;;;;4709901;55;21035;-42
2022/11/24 07:03:47;;;;;;;34.33;29.30;;;20.60;50.50;;;;;;4866325;55;21478;-40
2022/11/24 07:08:49;;;;;;;35.60;30.23;;;20.60;50.50;;;;;;4738316;55;21055;-40
2022/11/24 07:13:50;;;;;;;36.05;29.35;;;20.60;50.50;;;;;;4757077;55;21019;-43
2022/11/24 07:18:53;;;;;;;41.15;31.52;;;20.60;50.50;;;;;;4694950;56;21549;-38
2022/11/24 07:23:56;;;;;;;40.65;31.48;;;20.60;50.40;;;;;;4725418;55;21119;-37
2022/11/24 07:28:57;;;;;;;39.70;33.08;;;20.70;50.40;;;;;;4694854;59;21135;-48
2022/11/24 07:33:57;;;;;;;39.72;31.90;;;20.70;50.40;;;;;;4694953;59;21112;-43
2022/11/24 07:38:58;;;;;;;40.30;31.80;;;20.70;50.30;;;;;;4694225;57;21024;-44
2022/11/24 07:43:59;;;;;;;39.85;31.90;;;20.60;50.30;;;;;;4740233;55;21505;-43
2022/11/24 07:49:00;;;;;;;42.03;33.42;;;20.60;50.30;;;;;;4694228;56;21051;-44
2022/11/24 07:54:01;;;;;;;39.85;33.55;;;20.60;50.40;;;;;;4695975;55;21119;-41
2022/11/24 07:59:02;;;;;;;43.42;34.40;;;20.60;50.40;;;;;;4694150;59;21145;-44
2022/11/24 08:04:03;;;;;;;46.35;36.33;;;20.60;49.90;;;;;;4693264;59;21024;-39
2022/11/24 08:09:04;;;;;;;46.55;38.10;;;20.60;50.30;;;;;;4712305;55;21000;-33
2022/11/24 08:14:05;;;;;;;56.15;41.60;;;20.70;50.70;;;;;;4802955;55;21039;-39
2022/11/24 08:19:06;;;;;;;58.83;44.95;;;20.70;50.30;;;;;;4694204;59;21000;-30
2022/11/24 08:24:08;;;;;;;64.68;48.10;;;20.80;50.30;;;;;;4694800;59;21377;-35
2022/11/24 08:29:09;;;;;;;64.28;47.55;;;20.80;50.20;;;;;;4694614;59;21625;-39
2022/11/24 08:34:09;;;;;;;73.80;54.17;;;20.90;50.40;;;;;;4694829;59;21012;-41
2022/11/24 08:39:10;;;;;;;70.07;52.42;;;20.90;50.00;;;;;;4761865;55;21012;-40
2022/11/24 08:44:14;;;;;;;79.55;56.88;;;20.90;49.80;;;;;;4737484;55;21554;-40
2022/11/24 08:49:17;;;;;;;77.25;58.40;;;20.90;49.70;;;;;;4747873;55;21447;-28
2022/11/24 08:54:18;;;;;;;83.60;59.42;;;20.90;49.60;;;;;;4855489;55;21542;-32
2022/11/24 08:59:19;;;;;;;86.40;61.83;;;20.90;49.60;;;;;;4759133;55;21032;-35
2022/11/24 09:04:22;;;;;;;94.03;67.97;;;20.90;49.50;;;;;;4710213;55;21088;-32
2022/11/24 09:09:23;;;;;;;93.75;68.82;;;21.00;49.50;;;;;;4750216;55;20980;-33
2022/11/24 09:14:24;;;;;;;106.45;72.43;;;21.00;49.60;;;;;;4926094;55;21055;-38
2022/11/24 09:19:25;;;;;;;106.35;76.90;;;21.00;49.60;;;;;;4794824;55;21459;-45
2022/11/24 09:24:25;;;;;;;109.12;79.20;;;21.00;49.70;;;;;;4724998;55;21040;-32
2022/11/24 09:29:26;;;;;;;116.18;83.37;;;21.10;49.80;;;;;;4764718;55;21000;-32
2022/11/24 09:34:27;;;;;;;121.30;88.87;;;21.10;49.80;;;;;;4760192;55;21063;-46
2022/11/24 09:39:28;;;;;;;126.03;90.90;;;21.10;49.90;;;;;;4758778;55;21514;-44
2022/11/24 09:45:05;;;;;;;134.10;96.37;;;21.10;50.00;;;;;;4757570;55;21123;-46
2022/11/24 09:50:19;;;;;;;130.43;99.00;;;21.20;50.20;;;;;;4694809;57;21491;-39
2022/11/24 09:55:38;;;;;;;122.55;91.35;;;21.20;50.40;;;;;;4692939;59;21044;-46
2022/11/24 10:00:39;;;;;;;132.80;93.43;;;21.20;50.70;;;;;;4721721;55;21020;-35
2022/11/24 10:05:40;;;;;;;132.50;95.35;;;21.20;51.20;;;;;;4713679;55;21056;-43
2022/11/24 10:10:51;;;;;;;133.80;97.30;;;21.20;51.40;;;;;;4695050;55;21008;-43
2022/11/24 10:19:48;;;;;;;135.45;99.05;;;21.20;51.30;;;;;;4694049;59;21020;-41
2022/11/24 10:25:35;;;;;;;134.37;99.75;;;21.20;51.30;;;;;;4767982;55;21055;-29
2022/11/24 10:30:36;;;;;;;143.02;105.10;;;21.20;51.20;;;;;;4746478;55;21036;-39
2022/11/24 10:35:45;;;;;;;143.87;106.15;;;21.20;51.30;;;;;;4694939;59;21020;-39
2022/11/24 10:42:39;;;;;;;143.65;105.70;;;21.30;51.30;;;;;;4809948;55;21075;-33
2022/11/24 10:47:41;;;;;;;138.88;102.80;;;21.30;51.30;;;;;;4919732;55;21008;-36
2022/11/24 10:53:12;;;;;;;134.25;102.32;;;21.30;51.20;;;;;;4973187;55;21028;-37
2022/11/24 10:58:15;;;;;;;145.70;105.57;;;21.40;51.20;;;;;;4798636;55;21471;-40
2022/11/24 11:03:20;;;;;;;139.37;103.57;;;21.40;51.20;;;;;;4759184;55;21518;-40
2022/11/24 11:08:29;;;;;;;141.52;104.70;;;21.40;51.10;;;;;;4704323;55;22668;-32
2022/11/24 11:13:31;;;;;;;138.30;102.97;;;21.50;51.20;;;;;;4823061;55;21561;-41
2022/11/24 11:18:32;;;;;;;141.40;106.50;;;21.50;51.10;;;;;;4773660;55;21454;-43
2022/11/24 11:23:35;;;;;;;143.20;109.37;;;21.50;51.30;;;;;;4735387;55;21072;-33
2022/11/24 11:28:35;;;;;;;146.52;108.95;;;21.50;51.30;;;;;;4842076;55;20996;-32
2022/11/24 11:33:36;;;;;;;138.52;105.68;;;21.50;51.40;;;;;;4761522;55;21004;-43
2022/11/24 11:38:39;;;;;;;138.88;106.03;;;21.50;51.50;;;;;;4775627;55;21517;-34
2022/11/24 11:43:40;;;;;;;145.62;105.75;;;21.50;51.50;;;;;;4693688;59;21075;-32
2022/11/24 11:48:45;;;;;;;147.57;109.53;;;21.50;51.50;;;;;;4749349;55;21119;-45
2022/11/24 11:54:12;;;;;;;147.30;112.72;;;21.50;51.40;;;;;;4719146;55;21549;-46
2022/11/24 12:00:28;;;;;;;149.45;110.60;;;21.60;51.30;;;;;;4825234;55;21084;-42
2022/11/24 12:10:10;;;;;;;159.52;114.72;;;21.50;52.00;;;;;;4695247;59;20996;-43
2022/11/24 12:16:48;;;;;;;161.07;117.68;;;21.60;51.30;;;;;;4694791;56;21056;-44
2022/11/24 12:22:23;;;;;;;162.75;118.50;;;21.50;51.10;;;;;;4714174;55;21035;-50
2022/11/24 12:30:19;;;;;;;169.18;123.10;;;21.50;50.50;;;;;;4694391;59;21522;-39
2022/11/24 12:35:41;;;;;;;162.93;118.05;;;21.50;50.10;;;;;;4694537;59;21051;-41
2022/11/24 12:41:15;;;;;;;164.13;120.65;;;21.40;49.70;;;;;;4694582;59;21562;-46
2022/11/24 12:46:53;;;;;;;162.52;120.85;;;21.40;49.50;;;;;;4691829;56;21496;-42
2022/11/24 12:52:01;;;;;;;163.95;123.25;;;21.40;49.40;;;;;;4701622;55;21064;-39
2022/11/24 12:57:24;;;;;;;164.07;122.80;;;21.40;49.20;;;;;;4735220;55;21526;-47
2022/11/24 13:07:49;;;;;;;173.73;123.70;;;21.40;49.00;;;;;;4693433;59;21008;-46
2022/11/24 13:12:58;;;;;;;179.82;125.70;;;21.30;48.90;;;;;;4697400;55;21016;-42
2022/11/24 13:17:59;;;;;;;167.45;122.32;;;21.30;48.30;;;;;;4695589;55;21028;-31
2022/11/24 13:23:02;;;;;;;170.57;123.30;;;21.30;48.80;;;;;;4705593;55;21075;-35
2022/11/24 13:28:05;;;;;;;167.30;119.93;;;21.40;49.00;;;;;;4760477;55;21068;-28
2022/11/24 13:33:39;;;;;;;168.62;121.10;;;21.40;49.10;;;;;;4945268;55;21637;-37
2022/11/24 13:38:53;;;;;;;165.50;116.28;;;21.40;49.30;;;;;;4694430;59;20992;-40
2022/11/24 13:44:16;;;;;;;163.12;119.20;;;21.40;49.40;;;;;;4694999;55;21008;-32
2022/11/24 13:49:19;;;;;;;165.88;119.43;;;21.40;49.50;;;;;;4763500;55;20976;-35
2022/11/24 13:54:24;;;;;;;161.15;117.57;;;21.50;49.50;;;;;;4853801;55;21506;-32
2022/11/24 13:59:35;;;;;;;161.18;117.13;;;21.50;49.50;;;;;;4811660;55;21071;-33
2022/11/24 14:04:38;;;;;;;157.27;114.90;;;21.50;49.60;;;;;;4721259;55;21522;-36
2022/11/24 14:09:49;;;;;;;166.35;117.40;;;21.50;49.60;;;;;;4724615;55;21554;-31
2022/11/24 14:14:51;;;;;;;158.02;115.65;;;21.50;49.50;;;;;;4805273;55;21067;-28
2022/11/24 14:19:54;;;;;;;160.37;113.37;;;21.60;49.60;;;;;;4763159;55;21011;-37
2022/11/24 14:25:01;;;;;;;154.23;112.90;;;21.60;49.80;;;;;;4794690;55;21081;-40
2022/11/24 14:30:24;;;;;;;153.90;113.20;;;21.60;49.80;;;;;;4694665;59;21119;-47
2022/11/24 14:35:28;;;;;;;159.85;115.70;;;21.60;49.90;;;;;;4953396;55;21198;-39
2022/11/24 14:41:30;;;;;;;176.95;124.75;;;21.60;50.00;;;;;;4699893;55;21009;-38
2022/11/24 14:46:31;;;;;;;177.82;125.87;;;21.60;50.00;;;;;;4694980;55;20996;-41
2022/11/24 14:51:35;;;;;;;189.07;132.35;;;21.60;50.00;;;;;;4700327;55;21120;-41
2022/11/24 14:56:37;;;;;;;185.10;132.48;;;21.60;49.80;;;;;;4793230;55;21091;-39
2022/11/24 15:01:38;;;;;;;180.63;129.80;;;21.60;49.80;;;;;;4994775;55;21258;-34
2022/11/24 15:06:41;;;;;;;190.70;133.15;;;21.60;50.20;;;;;;4752318;55;21072;-39
2022/11/24 15:11:42;;;;;;;195.38;132.75;;;21.50;50.00;;;;;;4707621;55;21020;-44
2022/11/24 15:16:43;;;;;;;183.10;126.80;;;21.50;50.20;;;;;;4697285;55;21012;-46
2022/11/24 15:21:44;;;;;;;179.18;125.78;;;21.40;50.30;;;;;;4784733;55;20996;-46
2022/11/24 15:26:45;;;;;;;185.70;130.93;;;21.40;50.30;;;;;;4729459;55;21290;-29
2022/11/24 15:31:46;;;;;;;181.30;126.95;;;21.40;50.40;;;;;;4692944;55;21056;-46
2022/11/24 15:36:47;;;;;;;175.57;125.50;;;21.30;50.50;;;;;;4743926;55;21020;-42
2022/11/24 15:41:48;;;;;;;177.50;127.40;;;21.30;50.60;;;;;;4750279;55;21028;-40
2022/11/24 15:46:48;;;;;;;174.05;126.15;;;21.30;50.60;;;;;;4695006;59;21036;-42
2022/11/24 15:51:49;;;;;;;170.82;123.93;;;21.30;51.10;;;;;;4851835;55;21569;-38
2022/11/24 15:56:50;;;;;;;168.87;124.28;;;21.30;50.70;;;;;;4834710;55;20996;-44
2022/11/24 16:01:51;;;;;;;167.35;122.25;;;21.30;50.70;;;;;;4694358;59;21478;-45
2022/11/24 16:06:52;;;;;;;164.93;121.40;;;21.20;50.80;;;;;;4758923;55;20992;-48
2022/11/24 16:11:53;;;;;;;166.50;119.60;;;21.20;50.80;;;;;;5028686;55;21031;-39
2022/11/24 16:16:53;;;;;;;166.07;119.30;;;21.20;50.80;;;;;;4710258;55;21023;-44
2022/11/24 16:21:54;;;;;;;166.00;118.62;;;21.20;50.80;;;;;;4694359;59;21048;-43
2022/11/24 16:26:55;;;;;;;161.50;120.90;;;21.20;50.90;;;;;;4747437;55;21510;-40
2022/11/24 16:31:56;;;;;;;163.30;117.85;;;21.20;50.80;;;;;;4831235;55;21105;-37
2022/11/24 16:36:57;;;;;;;157.98;113.82;;;21.10;50.80;;;;;;4778524;55;21475;-41
2022/11/24 16:41:58;;;;;;;155.68;113.68;;;21.10;51.10;;;;;;4694156;59;21004;-40
2022/11/24 16:46:59;;;;;;;152.45;114.22;;;21.10;50.90;;;;;;4821204;55;20980;-38
2022/11/24 16:52:00;;;;;;;151.25;113.50;;;21.10;50.90;;;;;;4733838;55;21481;-48
2022/11/24 16:57:00;;;;;;;150.02;112.88;;;21.10;50.90;;;;;;4696524;55;21004;-43
2022/11/24 17:02:01;;;;;;;152.70;113.12;;;21.10;50.90;;;;;;4769982;55;21016;-45
2022/11/24 17:07:02;;;;;;;157.32;117.32;;;21.10;51.00;;;;;;4853695;55;21459;-44
2022/11/24 17:12:03;;;;;;;154.77;114.00;;;21.10;51.10;;;;;;4694754;57;21012;-44
2022/11/24 17:17:04;;;;;;;156.87;115.20;;;21.10;51.00;;;;;;4780209;55;21040;-46
2022/11/24 17:22:05;;;;;;;159.05;117.20;;;21.10;51.00;;;;;;4694316;56;21024;-47
2022/11/24 17:27:06;;;;;;;153.87;113.12;;;21.10;51.00;;;;;;4694754;59;21008;-44
2022/11/24 17:32:07;;;;;;;150.70;113.80;;;21.10;51.10;;;;;;4730685;55;21008;-46
2022/11/24 17:37:07;;;;;;;154.20;115.43;;;21.10;51.00;;;;;;4749758;55;21564;-43
2022/11/24 17:42:08;;;;;;;153.18;114.05;;;21.10;51.00;;;;;;4693972;59;21032;-48
2022/11/24 17:47:09;;;;;;;152.20;115.50;;;21.10;51.00;;;;;;4931096;55;20995;-39
2022/11/24 17:52:10;;;;;;;162.32;120.72;;;21.10;51.10;;;;;;4818598;55;21080;-44
2022/11/24 17:57:11;;;;;;;157.88;117.18;;;21.10;51.10;;;;;;4738748;55;20996;-42
2022/11/24 18:02:11;;;;;;;161.68;119.37;;;21.00;51.00;;;;;;4932704;55;21027;-39
2022/11/24 18:07:12;;;;;;;160.82;118.45;;;21.10;51.10;;;;;;4744631;55;21007;-42
2022/11/24 18:12:13;;;;;;;154.60;116.85;;;21.00;51.10;;;;;;4844359;55;21573;-44
2022/11/24 18:17:14;;;;;;;154.68;118.32;;;21.00;51.10;;;;;;5026491;55;21530;-44
2022/11/24 18:22:15;;;;;;;159.55;119.93;;;21.10;51.20;;;;;;4693945;59;21029;-37
2022/11/24 18:27:15;;;;;;;166.20;122.82;;;21.00;51.10;;;;;;4755815;55;21396;-47
2022/11/24 18:32:17;;;;;;;159.77;119.95;;;21.00;51.10;;;;;;4824816;55;21506;-44
2022/11/24 18:37:18;;;;;;;158.60;120.75;;;21.00;51.10;;;;;;4694750;59;21011;-42
2022/11/24 18:42:19;;;;;;;159.60;120.10;;;21.00;51.20;;;;;;4773051;55;21104;-49
2022/11/24 18:47:21;;;;;;;160.40;122.60;;;21.00;51.20;;;;;;4871369;55;21454;-48
2022/11/24 18:52:21;;;;;;;151.43;120.57;;;21.00;51.30;;;;;;4749867;55;21598;-32
2022/11/24 18:57:22;;;;;;;155.05;118.22;;;21.00;51.20;;;;;;4704648;55;21068;-49
2022/11/24 19:02:23;;;;;;;162.60;122.82;;;21.00;51.20;;;;;;4744196;55;21078;-39
2022/11/24 19:07:24;;;;;;;153.77;120.62;;;21.00;51.20;;;;;;4742608;55;21012;-43
2022/11/24 19:12:25;;;;;;;156.10;120.25;;;21.00;51.20;;;;;;4782962;55;21020;-39
2022/11/24 19:17:26;;;;;;;163.25;122.55;;;21.00;51.90;;;;;;4737858;55;21024;-43
2022/11/24 19:22:27;;;;;;;158.82;121.93;;;21.00;51.20;;;;;;4693994;59;21023;-37
2022/11/24 19:27:28;;;;;;;150.50;118.70;;;21.00;51.30;;;;;;4712476;55;21522;-45
2022/11/24 19:32:31;;;;;;;156.82;119.13;;;21.00;51.20;;;;;;4711681;55;21506;-36
2022/11/24 19:37:32;;;;;;;160.68;124.87;;;21.00;51.30;;;;;;4800391;55;21470;-34
2022/11/24 19:42:32;;;;;;;152.95;119.93;;;21.00;51.30;;;;;;4762448;55;21087;-37
2022/11/24 19:47:33;;;;;;;157.93;119.78;;;21.00;51.20;;;;;;4829476;55;21008;-44
2022/11/24 19:52:34;;;;;;;160.35;122.05;;;21.00;51.20;;;;;;4694606;59;21134;-46
2022/11/24 19:57:35;;;;;;;158.80;121.37;;;21.00;51.30;;;;;;4797401;55;21008;-38
2022/11/24 20:02:36;;;;;;;161.60;122.62;;;21.00;51.30;;;;;;4729424;55;21032;-41
2022/11/24 20:07:37;;;;;;;162.65;123.82;;;21.00;50.90;;;;;;4792429;55;21004;-40
2022/11/24 20:12:37;;;;;;;157.12;121.35;;;21.00;51.30;;;;;;4695080;59;21020;-42
2022/11/24 20:17:38;;;;;;;159.77;124.85;;;21.00;51.40;;;;;;4694866;59;21051;-46
2022/11/24 20:22:39;;;;;;;163.27;124.20;;;21.00;51.30;;;;;;5025663;55;21028;-38
2022/11/24 20:27:40;;;;;;;160.02;122.43;;;21.00;51.30;;;;;;4695050;59;21466;-45
2022/11/24 20:32:41;;;;;;;169.82;126.60;;;21.00;51.30;;;;;;4754157;55;21141;-42
2022/11/24 20:37:42;;;;;;;165.18;124.57;;;21.00;51.30;;;;;;4974699;55;21008;-31
2022/11/24 20:42:42;;;;;;;165.62;126.95;;;21.00;51.20;;;;;;4694448;59;21036;-40
2022/11/24 20:47:43;;;;;;;164.77;125.18;;;21.00;51.30;;;;;;4813266;55;21008;-35
2022/11/24 20:52:44;;;;;;;166.55;126.60;;;21.00;51.20;;;;;;4694858;59;21585;-33
2022/11/24 20:57:45;;;;;;;169.50;126.60;;;21.00;51.20;;;;;;4807920;55;21039;-41
2022/11/24 21:02:45;;;;;;;167.45;128.05;;;21.00;51.30;;;;;;4714114;55;21031;-46
2022/11/24 21:07:46;;;;;;;171.85;128.05;;;21.00;51.30;;;;;;4774823;55;21056;-38
2022/11/24 21:12:47;;;;;;;170.35;130.10;;;21.00;51.40;;;;;;4825106;55;21036;-42
2022/11/24 21:17:48;;;;;;;168.62;127.30;;;21.00;51.20;;;;;;4968492;55;21008;-42
2022/11/24 21:22:49;;;;;;;168.95;126.82;;;21.00;51.20;;;;;;4694539;59;21072;-34
2022/11/24 21:27:49;;;;;;;176.60;131.50;;;21.00;51.20;;;;;;4704554;55;21063;-37
2022/11/24 21:32:50;;;;;;;168.75;128.20;;;21.00;51.20;;;;;;4869659;55;21055;-30
2022/11/24 21:37:51;;;;;;;168.70;128.60;;;20.90;51.20;;;;;;4721991;55;21075;-30
2022/11/24 21:42:52;;;;;;;168.52;128.65;;;21.00;51.20;;;;;;5084128;55;21083;-40
2022/11/24 21:47:53;;;;;;;168.37;128.23;;;20.90;51.10;;;;;;4695312;59;21486;-36
2022/11/24 21:52:54;;;;;;;172.13;131.02;;;20.90;51.10;;;;;;4923564;55;21032;-43
2022/11/24 21:57:54;;;;;;;170.93;131.43;;;20.90;51.10;;;;;;4694848;59;21008;-33
2022/11/24 22:02:55;;;;;;;170.20;130.87;;;21.00;51.10;;;;;;4882852;55;21024;-39
2022/11/24 22:07:56;;;;;;;172.82;129.32;;;20.90;51.70;;;;;;4724643;55;21012;-43
2022/11/24 22:12:57;;;;;;;178.57;130.45;;;20.90;51.10;;;;;;4695139;56;21024;-39
2022/11/24 22:17:57;;;;;;;169.90;128.27;;;20.90;51.00;;;;;;4695328;55;21092;-32
2022/11/24 22:23:01;;;;;;;175.00;133.55;;;20.90;51.00;;;;;;4757285;55;21036;-36
2022/11/24 22:28:02;;;;;;;177.15;132.27;;;20.90;51.00;;;;;;4802297;55;21533;-38
2022/11/24 22:33:03;;;;;;;177.50;134.73;;;20.90;50.90;;;;;;4695088;59;21103;-35
2022/11/24 22:38:04;;;;;;;177.80;131.63;;;20.90;51.00;;;;;;4828576;55;21011;-33
2022/11/24 22:43:04;;;;;;;168.07;130.30;;;20.90;50.90;;;;;;4693940;59;21080;-30
2022/11/24 22:48:05;;;;;;;174.68;132.10;;;20.90;51.00;;;;;;4857735;55;21079;-45
2022/11/24 22:53:06;;;;;;;170.10;131.02;;;20.90;50.90;;;;;;4945647;55;21100;-40
2022/11/24 22:58:07;;;;;;;173.95;132.68;;;20.90;50.90;;;;;;4695145;56;21000;-41
2022/11/24 23:03:08;;;;;;;173.95;130.15;;;20.90;50.90;;;;;;4726284;55;21518;-45
2022/11/24 23:08:08;;;;;;;170.35;126.78;;;20.90;50.90;;;;;;4827698;55;21517;-31
2022/11/24 23:13:09;;;;;;;170.98;131.25;;;20.90;50.80;;;;;;4694469;55;21071;-38
2022/11/24 23:18:10;;;;;;;172.95;129.55;;;20.90;50.90;;;;;;5008235;55;21136;-38
2022/11/24 23:23:11;;;;;;;174.82;130.65;;;20.90;51.00;;;;;;4721828;55;21023;-31
2022/11/24 23:28:12;;;;;;;167.15;127.95;;;20.90;50.90;;;;;;4695221;59;21004;-30
2022/11/24 23:33:12;;;;;;;163.43;124.38;;;20.90;50.80;;;;;;5169472;55;21010;-48
2022/11/24 23:38:13;;;;;;;166.18;124.70;;;20.90;50.80;;;;;;5144283;55;21514;-41
2022/11/24 23:43:14;;;;;;;164.10;123.38;;;20.90;50.90;;;;;;4693738;59;21542;-41
2022/11/24 23:48:15;;;;;;;164.37;125.68;;;20.90;50.80;;;;;;4708216;55;21039;-41
2022/11/24 23:53:16;;;;;;;162.80;124.70;;;20.90;50.80;;;;;;5169416;55;21104;-49
2022/11/24 23:58:16;;;;;;;165.30;122.75;;;20.90;50.80;;;;;;4694945;59;21016;-33
